createdAt,value
2022-10-25T00:02:53.194Z,13.80
2022-10-25T00:16:53.152Z,13.10
2022-10-25T00:30:53.157Z,12.50
2022-10-25T00:39:14.922Z,11.95
2022-10-25T00:52:14.547Z,12.70
2022-10-25T01:06:14.567Z,11.90
2022-10-25T01:20:14.922Z,12.50
2022-10-25T01:34:15.223Z,11.20
2022-10-25T01:48:15.118Z,10.40
2022-10-25T02:02:15.131Z,9.90
2022-10-25T02:16:15.245Z,10.40
2022-10-25T02:30:15.529Z,9.40
2022-10-25T02:44:15.464Z,8.70
2022-10-25T02:58:15.472Z,8.60
2022-10-25T03:12:15.478Z,8.10
2022-10-25T03:26:15.466Z,7.50
2022-10-25T03:40:15.498Z,6.80
2022-10-25T03:54:15.512Z,5.90
2022-10-25T04:08:15.506Z,5.80
2022-10-25T04:22:15.636Z,5.40
2022-10-25T04:36:15.625Z,4.90
2022-10-25T04:50:15.635Z,5.20
2022-10-25T05:04:15.677Z,4.40
2022-10-25T05:18:15.755Z,3.90
2022-10-25T05:32:15.807Z,7.10
2022-10-25T05:46:15.803Z,7.80
2022-10-25T06:01:16.029Z,7.60
2022-10-25T06:16:15.925Z,6.60
2022-10-25T06:31:15.910Z,8.30
2022-10-25T06:46:15.934Z,6.20
2022-10-25T07:01:16.111Z,5.70
2022-10-25T07:16:16.050Z,5.40
2022-10-25T07:31:16.145Z,4.60
2022-10-25T07:46:16.192Z,3.40
2022-10-25T08:01:16.602Z,4.50
2022-10-25T08:16:16.249Z,3.40
2022-10-25T08:31:16.296Z,19.10
2022-10-25T08:46:16.274Z,38.80
2022-10-25T09:01:16.392Z,30.55
2022-10-25T09:16:16.308Z,26.40
2022-10-25T09:31:16.389Z,22.80
2022-10-25T09:46:16.438Z,18.70
2022-10-25T10:01:16.591Z,15.80
2022-10-25T10:16:16.443Z,15.10
2022-10-25T10:31:16.572Z,13.20
2022-10-25T10:46:17.595Z,12.10
2022-10-25T10:48:55.977Z,13.10
2022-10-25T11:17:55.055Z,9.50
2022-10-25T11:32:53.959Z,9.40
2022-10-25T11:47:53.755Z,7.70
2022-10-25T12:02:53.766Z,6.30
2022-10-25T12:17:53.866Z,7.70
2022-10-25T12:32:53.941Z,6.20
2022-10-25T12:47:53.892Z,4.60
2022-10-25T13:02:53.880Z,4.90
2022-10-25T13:17:54.111Z,3.80
2022-10-25T13:32:54.249Z,4.10
2022-10-25T13:47:54.243Z,3.50
2022-10-25T14:02:54.241Z,3.80
2022-10-25T14:17:54.275Z,2.80
2022-10-25T14:32:54.485Z,3.10
2022-10-25T14:47:54.615Z,2.80
2022-10-25T15:02:54.612Z,4.60
2022-10-25T15:18:54.631Z,2.10
2022-10-25T15:33:54.634Z,3.30
2022-10-25T15:48:54.672Z,1.80
2022-10-25T16:03:54.673Z,1.90
2022-10-25T16:18:54.827Z,1.80
2022-10-25T16:33:54.788Z,4.00
2022-10-25T16:48:55.853Z,3.40
2022-10-25T17:02:54.906Z,1.90
2022-10-25T17:16:56.657Z,1.90
2022-10-25T17:30:54.922Z,5.10
2022-10-25T17:44:54.934Z,10.00
2022-10-25T17:58:54.958Z,5.90
2022-10-25T18:12:54.987Z,4.60
2022-10-25T18:26:54.993Z,3.00
2022-10-25T18:40:54.998Z,3.30
2022-10-25T18:54:55.003Z,5.30
2022-10-25T19:08:55.024Z,2.10
2022-10-25T19:22:55.081Z,1.90
2022-10-25T19:36:55.146Z,4.20
2022-10-25T19:50:55.210Z,9.40
2022-10-25T20:04:55.218Z,123.60
2022-10-25T20:18:55.211Z,81.50
2022-10-25T20:32:55.229Z,71.80
2022-10-25T20:46:55.210Z,67.40
2022-10-25T21:00:55.238Z,62.70
2022-10-25T21:14:55.222Z,57.90
2022-10-25T21:28:55.560Z,48.30
2022-10-25T21:42:56.123Z,46.50
2022-10-25T21:56:56.090Z,46.20
2022-10-25T22:10:56.101Z,41.20
2022-10-25T22:24:56.111Z,37.80
2022-10-25T22:38:56.074Z,33.50
2022-10-25T22:52:56.106Z,30.10
2022-10-25T23:06:56.112Z,25.80
2022-10-25T23:20:56.109Z,22.70
2022-10-25T23:34:56.372Z,20.20
2022-10-25T23:48:56.107Z,19.70
